Mill Hill, United Kingdom
Current Conditions -  °F | °C
As of 2:50 PM on Monday 22 Dec 2014 (Local Time) from EGWU Reporting Station
Overcast Overcast  
Wind Chill: 55°   Ceiling: 2000
Heat Index: 55°   Visibility: 6mi
Dew Point: 48°   Wind: 15mph
Humidity: 77%   Direction: 250°WSW
Pressure: 30.03"   Gusts: 29mph
Location:  51.62°N, 0.22°W
Report Text: EGWU 221450Z 25013G25KT 9999 OVC020 13/09 Q1017 NOSIG
Loading
Personal Weather Stations






























Interactive Weather Map New forecast layout! Learn more

10-Day Weather Forecast

Advertisements
Track Severe Weather on mobile